createdAt,value
2024-04-05T00:00:18.785Z,5.06
2024-04-05T00:01:21.588Z,5.08
2024-04-05T00:02:24.138Z,5.09
2024-04-05T00:03:26.282Z,5.11
2024-04-05T00:04:28.542Z,5.12
2024-04-05T00:05:30.888Z,5.11
2024-04-05T00:06:33.317Z,5.11
2024-04-05T00:07:35.828Z,5.10
2024-04-05T00:08:38.037Z,5.10
2024-04-05T00:09:40.295Z,5.10
2024-04-05T00:10:42.897Z,5.11
2024-04-05T00:11:45.106Z,5.10
2024-04-05T00:12:58.401Z,5.09
2024-04-05T00:13:52.146Z,5.10
2024-04-05T00:14:54.405Z,5.09
2024-04-05T00:15:56.859Z,5.11
2024-04-05T00:16:59.119Z,5.12
2024-04-05T00:18:01.461Z,5.12
2024-04-05T00:19:03.481Z,5.10
2024-04-05T00:20:06.932Z,5.11
2024-04-05T00:21:09.503Z,5.11
2024-04-05T00:22:11.884Z,5.13
2024-04-05T00:23:14.901Z,5.11
2024-04-05T00:24:17.231Z,5.14
2024-04-05T00:25:21.363Z,5.12
2024-04-05T00:26:23.670Z,5.12
2024-04-05T00:27:25.897Z,5.13
2024-04-05T00:28:28.252Z,5.14
2024-04-05T00:29:30.367Z,5.12
2024-04-05T00:30:33.014Z,5.10
2024-04-05T00:31:35.345Z,5.10
2024-04-05T00:32:37.793Z,5.09
2024-04-05T00:33:40.094Z,5.08
2024-04-05T00:34:42.392Z,5.09
2024-04-05T00:35:53.503Z,5.12
2024-04-05T00:36:55.834Z,5.12
2024-04-05T00:37:58.052Z,5.12
2024-04-05T00:39:00.519Z,5.11
2024-04-05T00:40:03.049Z,5.11
2024-04-05T00:41:05.301Z,5.10
2024-04-05T00:42:07.602Z,5.07
2024-04-05T00:43:09.818Z,5.04
2024-04-05T00:44:12.376Z,5.01
2024-04-05T00:45:14.855Z,5.01
2024-04-05T00:46:16.995Z,4.99
2024-04-05T00:47:19.579Z,4.95
2024-04-05T00:48:22.854Z,4.94
2024-04-05T00:49:26.156Z,4.93
2024-04-05T00:50:29.785Z,4.92
2024-04-05T00:51:32.138Z,4.91
2024-04-05T00:52:34.971Z,4.92
2024-04-05T00:53:37.178Z,4.92
2024-04-05T00:54:39.887Z,4.92
2024-04-05T00:55:43.374Z,4.93
2024-04-05T00:56:46.709Z,4.94
2024-04-05T00:57:49.745Z,4.94
2024-04-05T00:58:52.523Z,4.93
2024-04-05T00:59:54.948Z,4.91
2024-04-05T01:00:57.710Z,4.90
2024-04-05T01:02:00.130Z,4.87
2024-04-05T01:03:03.049Z,4.84
2024-04-05T01:04:05.932Z,4.85
2024-04-05T01:05:08.346Z,4.83
2024-04-05T01:06:10.953Z,4.80
2024-04-05T01:07:13.305Z,4.82
2024-04-05T01:08:16.178Z,4.79
2024-04-05T01:09:19.754Z,4.81
2024-04-05T01:10:22.227Z,4.79
2024-04-05T01:11:24.604Z,4.78
2024-04-05T01:12:26.969Z,4.78
2024-04-05T01:13:29.195Z,4.76
2024-04-05T01:14:31.479Z,4.76
2024-04-05T01:15:34.667Z,4.75
2024-04-05T01:16:37.105Z,4.77
2024-04-05T01:17:39.599Z,4.77
2024-04-05T01:18:43.375Z,4.78
2024-04-05T01:19:46.470Z,4.78
2024-04-05T01:20:50.808Z,4.76
2024-04-05T01:21:53.873Z,4.76
2024-04-05T01:23:01.486Z,4.75
2024-04-05T01:24:04.213Z,4.74
2024-04-05T01:25:07.094Z,4.71
2024-04-05T01:26:09.977Z,4.71
2024-04-05T01:27:12.370Z,4.71
2024-04-05T01:28:15.530Z,4.72
2024-04-05T01:29:17.738Z,4.70
2024-04-05T01:30:20.246Z,4.68
2024-04-05T01:31:22.434Z,4.68
2024-04-05T01:32:24.713Z,4.65
2024-04-05T01:33:26.909Z,4.65
2024-04-05T01:34:29.375Z,4.64
2024-04-05T01:35:31.768Z,4.62
2024-04-05T01:36:34.259Z,4.59
2024-04-05T01:37:36.516Z,4.57
2024-04-05T01:38:38.734Z,4.52
2024-04-05T01:39:40.903Z,4.49
2024-04-05T01:40:43.133Z,4.46
2024-04-05T01:41:45.611Z,4.43
2024-04-05T01:42:47.852Z,4.41
2024-04-05T01:43:50.082Z,4.37
2024-04-05T01:44:52.442Z,4.33
2024-04-05T01:45:54.711Z,4.30
2024-04-05T01:46:57.214Z,4.27
2024-04-05T01:47:59.571Z,4.22
2024-04-05T01:49:01.896Z,4.18
2024-04-05T01:50:05.080Z,4.15
2024-04-05T01:51:07.379Z,4.11
2024-04-05T01:52:10.358Z,4.07
2024-04-05T01:53:12.586Z,4.06
2024-04-05T01:54:14.968Z,4.02
2024-04-05T01:55:17.599Z,3.99
2024-04-05T01:56:19.925Z,3.98
2024-04-05T01:57:22.243Z,3.94
2024-04-05T01:58:24.445Z,3.92
2024-04-05T01:59:26.948Z,3.90
2024-04-05T02:00:29.338Z,3.87
2024-04-05T02:01:34.431Z,3.85
2024-04-05T02:02:36.847Z,3.85
2024-04-05T02:03:39.186Z,3.85
2024-04-05T02:04:41.801Z,3.85
2024-04-05T02:05:44.087Z,3.84
2024-04-05T02:06:46.290Z,3.81
2024-04-05T02:07:48.805Z,3.78
2024-04-05T02:08:51.141Z,3.78
2024-04-05T02:09:53.473Z,3.76
2024-04-05T02:10:56.004Z,3.74
2024-04-05T02:11:58.983Z,3.73
2024-04-05T02:13:01.363Z,3.72
2024-04-05T02:14:03.860Z,3.72
2024-04-05T02:15:06.719Z,3.75
2024-04-05T02:16:09.384Z,3.76
2024-04-05T02:17:11.865Z,3.77
2024-04-05T02:18:14.081Z,3.78
2024-04-05T02:19:16.367Z,3.79
2024-04-05T02:20:18.621Z,3.81
2024-04-05T02:21:21.042Z,3.80
2024-04-05T02:22:23.161Z,3.81
2024-04-05T02:23:25.620Z,3.81
2024-04-05T02:24:28.145Z,3.83
2024-04-05T02:25:32.300Z,3.81
2024-04-05T02:26:34.708Z,3.76
2024-04-05T02:27:36.982Z,3.72
2024-04-05T02:28:39.401Z,3.68
2024-04-05T02:29:41.832Z,3.66
2024-04-05T02:30:44.509Z,3.62
2024-04-05T02:31:46.765Z,3.57
2024-04-05T02:32:49.195Z,3.56
2024-04-05T02:33:51.464Z,3.55
2024-04-05T02:34:53.624Z,3.50
2024-04-05T02:35:59.756Z,3.47
2024-04-05T02:37:02.283Z,3.45
2024-04-05T02:38:04.910Z,3.41
2024-04-05T02:39:07.046Z,3.40
2024-04-05T02:40:10.488Z,3.39
2024-04-05T02:41:12.831Z,3.35
2024-04-05T02:42:15.135Z,3.35
2024-04-05T02:43:17.418Z,3.34
2024-04-05T02:44:19.736Z,3.33
2024-04-05T02:45:22.031Z,3.35
2024-04-05T02:46:24.815Z,3.33
2024-04-05T02:47:27.130Z,3.33
2024-04-05T02:48:29.591Z,3.34
2024-04-05T02:49:31.771Z,3.33
2024-04-05T02:50:34.216Z,3.31
2024-04-05T02:51:36.749Z,3.31
2024-04-05T02:52:39.019Z,3.32
2024-04-05T02:53:41.361Z,3.33
2024-04-05T02:54:43.762Z,3.34
2024-04-05T02:55:45.994Z,3.34
2024-04-05T02:56:48.425Z,3.34
2024-04-05T02:57:50.822Z,3.33
2024-04-05T02:58:53.012Z,3.33
2024-04-05T02:59:55.368Z,3.34
2024-04-05T03:00:57.622Z,3.33
2024-04-05T03:01:59.854Z,3.35
2024-04-05T03:03:02.008Z,3.37
2024-04-05T03:04:04.512Z,3.38
2024-04-05T03:05:07.390Z,3.37
2024-04-05T03:06:09.709Z,3.39
2024-04-05T03:07:11.944Z,3.39
2024-04-05T03:08:14.327Z,3.40
2024-04-05T03:09:16.426Z,3.40
2024-04-05T03:10:18.786Z,3.40
2024-04-05T03:11:21.046Z,3.39
2024-04-05T03:12:23.469Z,3.40
2024-04-05T03:13:27.069Z,3.38
2024-04-05T03:14:29.533Z,3.38
2024-04-05T03:15:31.986Z,3.35
2024-04-05T03:16:34.194Z,3.33
2024-04-05T03:17:36.652Z,3.31
2024-04-05T03:18:39.078Z,3.30
2024-04-05T03:19:41.403Z,3.28
2024-04-05T03:20:43.509Z,3.25
2024-04-05T03:21:45.969Z,3.23
2024-04-05T03:22:48.162Z,3.20
2024-04-05T03:23:50.633Z,3.17
2024-04-05T03:24:52.991Z,3.18
2024-04-05T03:25:55.186Z,3.16
2024-04-05T03:26:57.670Z,3.16
2024-04-05T03:27:59.814Z,3.14
2024-04-05T03:29:02.184Z,3.14
2024-04-05T03:30:07.711Z,3.11
2024-04-05T03:31:09.368Z,3.11
2024-04-05T03:32:11.625Z,3.11
2024-04-05T03:33:13.934Z,3.13
2024-04-05T03:34:16.294Z,3.14
2024-04-05T03:35:18.657Z,3.15
2024-04-05T03:36:21.045Z,3.14
2024-04-05T03:37:23.336Z,3.15
2024-04-05T03:38:25.433Z,3.16
2024-04-05T03:39:27.868Z,3.15
2024-04-05T03:40:30.156Z,3.14
2024-04-05T03:41:32.379Z,3.08
2024-04-05T03:42:34.927Z,3.04
2024-04-05T03:43:38.957Z,3.03
2024-04-05T03:44:41.451Z,3.02
2024-04-05T03:45:43.569Z,3.03
2024-04-05T03:46:46.004Z,3.03
2024-04-05T03:47:48.125Z,3.04
2024-04-05T03:48:50.493Z,3.07
2024-04-05T03:49:52.709Z,3.08
2024-04-05T03:50:54.971Z,3.12
2024-04-05T03:51:57.295Z,3.15
2024-04-05T03:52:59.695Z,3.15
2024-04-05T03:54:01.957Z,3.15
2024-04-05T03:55:04.874Z,3.16
2024-04-05T03:56:08.020Z,3.19
2024-04-05T03:57:10.271Z,3.21
2024-04-05T03:58:12.368Z,3.23
2024-04-05T03:59:15.557Z,3.23
2024-04-05T04:00:20.019Z,3.26
2024-04-05T04:01:22.423Z,3.28
2024-04-05T04:02:24.746Z,3.32
2024-04-05T04:03:27.043Z,3.34
2024-04-05T04:04:29.367Z,3.39
2024-04-05T04:05:31.531Z,3.40
2024-04-05T04:06:33.920Z,3.43
2024-04-05T04:07:36.058Z,3.43
2024-04-05T04:08:38.511Z,3.44
2024-04-05T04:09:40.708Z,3.47
2024-04-05T04:10:43.166Z,3.52
2024-04-05T04:11:45.596Z,3.55
2024-04-05T04:12:47.625Z,3.61
2024-04-05T04:13:49.910Z,3.64
2024-04-05T04:14:52.068Z,3.63
2024-04-05T04:15:54.432Z,3.67
2024-04-05T04:16:56.660Z,3.68
2024-04-05T04:18:01.489Z,3.70
2024-04-05T04:19:03.918Z,3.72
2024-04-05T04:20:07.617Z,3.75
2024-04-05T04:21:10.006Z,3.78
2024-04-05T04:22:12.341Z,3.80
2024-04-05T04:23:14.611Z,3.82
2024-04-05T04:24:17.015Z,3.86
2024-04-05T04:25:20.977Z,3.88
2024-04-05T04:26:23.285Z,3.93
2024-04-05T04:27:25.427Z,3.98
2024-04-05T04:28:27.700Z,4.02
2024-04-05T04:29:29.657Z,4.05
2024-04-05T04:30:32.126Z,4.09
2024-04-05T04:31:34.620Z,4.09
2024-04-05T04:32:36.852Z,4.15
2024-04-05T04:33:39.194Z,4.16
2024-04-05T04:34:42.149Z,4.21
2024-04-05T04:35:45.456Z,4.25
2024-04-05T04:36:47.860Z,4.28
2024-04-05T04:37:50.092Z,4.31
2024-04-05T04:38:52.557Z,4.32
2024-04-05T04:39:54.966Z,4.37
2024-04-05T04:40:57.369Z,4.39
2024-04-05T04:41:59.674Z,4.42
2024-04-05T04:43:01.940Z,4.46
2024-04-05T04:44:04.769Z,4.52
2024-04-05T04:45:07.958Z,4.53
2024-04-05T04:46:11.575Z,4.54
2024-04-05T04:47:14.060Z,4.56
2024-04-05T04:48:16.407Z,4.59
2024-04-05T04:49:19.236Z,4.62
2024-04-05T04:50:21.664Z,4.63
2024-04-05T04:51:24.444Z,4.65
2024-04-05T04:52:26.832Z,4.67
2024-04-05T04:53:28.993Z,4.69
2024-04-05T04:54:32.386Z,4.72
2024-04-05T04:55:37.276Z,4.76
2024-04-05T04:56:39.773Z,4.79
2024-04-05T04:57:45.748Z,4.82
2024-04-05T04:58:48.242Z,4.86
2024-04-05T04:59:51.813Z,4.95
2024-04-05T05:00:54.444Z,5.02
2024-04-05T05:01:56.821Z,5.07
2024-04-05T05:02:59.422Z,5.13
2024-04-05T05:04:04.144Z,5.15
2024-04-05T05:05:06.440Z,5.19
2024-04-05T05:06:08.943Z,5.24
2024-04-05T05:07:11.424Z,5.26
2024-04-05T05:08:13.986Z,5.30
2024-04-05T05:09:16.886Z,5.33
2024-04-05T05:10:19.457Z,5.32
2024-04-05T05:11:24.046Z,5.33
2024-04-05T05:12:26.598Z,5.35
2024-04-05T05:13:30.116Z,5.37
2024-04-05T05:14:32.530Z,5.40
2024-04-05T05:15:35.266Z,5.46
2024-04-05T05:16:37.761Z,5.51
2024-04-05T05:17:40.248Z,5.55
2024-04-05T05:18:42.740Z,5.57
2024-04-05T05:19:45.447Z,5.62
2024-04-05T05:20:48.854Z,5.65
2024-04-05T05:21:51.112Z,5.68
2024-04-05T05:22:56.992Z,5.74
2024-04-05T05:23:59.449Z,5.77
2024-04-05T05:25:02.200Z,5.83
2024-04-05T05:26:05.319Z,5.91
2024-04-05T05:27:07.872Z,5.94
2024-04-05T05:28:12.495Z,5.96
2024-04-05T05:29:14.805Z,5.98
2024-04-05T05:30:17.393Z,6.02
2024-04-05T05:31:19.930Z,6.08
2024-04-05T05:32:22.254Z,6.12
2024-04-05T05:33:24.512Z,6.16
2024-04-05T05:34:26.958Z,6.22
2024-04-05T05:35:29.349Z,6.23
2024-04-05T05:36:31.850Z,6.28
2024-04-05T05:37:34.525Z,6.30
2024-04-05T05:38:36.711Z,6.34
2024-04-05T05:39:39.316Z,6.38
2024-04-05T05:40:41.670Z,6.38
2024-04-05T05:41:44.093Z,6.38
2024-04-05T05:42:46.323Z,6.40
2024-04-05T05:43:49.953Z,6.41
2024-04-05T05:44:52.400Z,6.42
2024-04-05T05:45:54.603Z,6.43
2024-04-05T05:46:57.055Z,6.49
2024-04-05T05:47:59.323Z,6.49
2024-04-05T05:49:01.560Z,6.56
2024-04-05T05:50:04.572Z,6.63
2024-04-05T05:51:07.034Z,6.68
2024-04-05T05:52:09.412Z,6.75
2024-04-05T05:53:11.509Z,6.79
2024-04-05T05:54:13.911Z,6.80
2024-04-05T05:55:16.569Z,6.86
2024-04-05T05:56:18.836Z,6.89
2024-04-05T05:57:21.412Z,6.93
2024-04-05T05:58:23.874Z,6.97
2024-04-05T05:59:26.336Z,7.00
2024-04-05T06:00:29.156Z,7.02
2024-04-05T06:01:31.984Z,7.05
2024-04-05T06:02:38.598Z,7.08
2024-04-05T06:03:41.525Z,7.10
2024-04-05T06:04:43.845Z,7.13
2024-04-05T06:05:52.427Z,7.18
2024-04-05T06:06:55.793Z,7.16
2024-04-05T06:07:58.126Z,7.18
2024-04-05T06:09:00.601Z,7.22
2024-04-05T06:10:03.567Z,7.28
2024-04-05T06:11:06.372Z,7.32
2024-04-05T06:12:10.769Z,7.35
2024-04-05T06:13:13.222Z,7.38
2024-04-05T06:14:16.214Z,7.41
2024-04-05T06:15:18.651Z,7.42
2024-04-05T06:16:21.098Z,7.43
2024-04-05T06:17:24.155Z,7.44
2024-04-05T06:18:28.308Z,7.47
2024-04-05T06:19:44.324Z,7.54
2024-04-05T06:20:55.438Z,7.56
2024-04-05T06:21:57.814Z,7.63
2024-04-05T06:23:00.246Z,7.67
2024-04-05T06:24:02.945Z,7.70
2024-04-05T06:25:18.463Z,7.70
2024-04-05T06:26:20.899Z,7.73
2024-04-05T06:27:23.763Z,7.76
2024-04-05T06:28:26.854Z,7.80
2024-04-05T06:29:29.510Z,7.86
2024-04-05T06:30:31.729Z,7.90
2024-04-05T06:31:35.468Z,7.96
2024-04-05T06:32:37.843Z,8.01
2024-04-05T06:33:40.095Z,8.05
2024-04-05T06:34:42.971Z,8.13
2024-04-05T06:35:45.868Z,8.17
2024-04-05T06:36:48.259Z,8.21
2024-04-05T06:37:50.695Z,8.25
2024-04-05T06:38:53.124Z,8.28
2024-04-05T06:39:55.676Z,8.28
2024-04-05T06:41:01.024Z,8.25
2024-04-05T06:42:03.810Z,8.27
2024-04-05T06:43:08.409Z,8.26
2024-04-05T06:44:11.094Z,8.29
2024-04-05T06:45:13.497Z,8.27
2024-04-05T06:46:15.805Z,8.27
2024-04-05T06:47:18.271Z,8.24
2024-04-05T06:48:20.492Z,8.21
2024-04-05T06:49:22.843Z,8.19
2024-04-05T06:50:25.219Z,8.16
2024-04-05T06:51:27.386Z,8.15
2024-04-05T06:52:29.779Z,8.11
2024-04-05T06:53:32.012Z,8.08
2024-04-05T06:54:44.129Z,8.08
2024-04-05T06:55:49.791Z,8.08
2024-04-05T06:56:52.387Z,8.08
2024-04-05T06:57:54.588Z,8.09
2024-04-05T06:58:57.070Z,8.15
2024-04-05T06:59:59.296Z,8.21
2024-04-05T07:01:02.155Z,8.28
2024-04-05T07:02:17.616Z,8.35
2024-04-05T07:03:20.130Z,8.41
2024-04-05T07:04:22.364Z,8.42
2024-04-05T07:05:24.705Z,8.40
2024-04-05T07:06:26.958Z,8.40
2024-04-05T07:07:29.373Z,8.38
2024-04-05T07:08:31.758Z,8.39
2024-04-05T07:09:34.096Z,8.43
2024-04-05T07:10:48.146Z,8.47
2024-04-05T07:11:41.483Z,8.50
2024-04-05T07:12:43.948Z,8.52
2024-04-05T07:13:46.462Z,8.55
2024-04-05T07:14:48.984Z,8.57
2024-04-05T07:15:51.559Z,8.58
2024-04-05T07:16:53.796Z,8.61
2024-04-05T07:17:56.335Z,8.63
2024-04-05T07:18:58.728Z,8.62
2024-04-05T07:20:01.199Z,8.60
2024-04-05T07:21:04.272Z,8.61
2024-04-05T07:22:06.642Z,8.67
2024-04-05T07:23:09.036Z,8.71
2024-04-05T07:24:11.220Z,8.76
2024-04-05T07:25:14.037Z,8.81
2024-04-05T07:26:16.311Z,8.88
2024-04-05T07:27:18.760Z,8.92
2024-04-05T07:28:21.187Z,8.97
2024-04-05T07:29:23.591Z,9.04
2024-04-05T07:30:26.186Z,9.12
2024-04-05T07:31:29.402Z,9.18
2024-04-05T07:32:32.155Z,9.26
2024-04-05T07:33:34.469Z,9.34
2024-04-05T07:34:36.781Z,9.41
2024-04-05T07:35:39.301Z,9.49
2024-04-05T07:36:41.762Z,9.55
2024-04-05T07:37:50.503Z,9.61
2024-04-05T07:38:53.036Z,9.65
2024-04-05T07:39:55.914Z,9.68
2024-04-05T07:41:06.426Z,9.75
2024-04-05T07:42:08.783Z,9.79
2024-04-05T07:43:11.030Z,9.78
2024-04-05T07:44:14.285Z,9.84
2024-04-05T07:45:16.894Z,9.91
2024-04-05T07:46:19.302Z,9.95
2024-04-05T07:47:21.543Z,9.96
2024-04-05T07:48:24.095Z,9.97
2024-04-05T07:49:26.274Z,9.98
2024-04-05T07:50:28.626Z,10.04
2024-04-05T07:51:31.617Z,10.08
2024-04-05T07:52:34.060Z,10.15
2024-04-05T07:53:36.215Z,10.23
2024-04-05T07:54:42.193Z,10.31
2024-04-05T07:55:44.581Z,10.36
2024-04-05T07:56:48.215Z,10.44
2024-04-05T07:57:51.696Z,10.53
2024-04-05T07:58:54.112Z,10.61
2024-04-05T07:59:56.560Z,10.66
2024-04-05T08:00:59.133Z,10.71
2024-04-05T08:02:01.599Z,10.75
2024-04-05T08:03:04.395Z,10.83
2024-04-05T08:04:06.683Z,10.86
2024-04-05T08:05:09.101Z,10.84
2024-04-05T08:06:11.577Z,10.83
2024-04-05T08:07:14.058Z,10.81
2024-04-05T08:08:16.582Z,10.85
2024-04-05T08:09:18.965Z,10.91
2024-04-05T08:10:21.278Z,10.99
2024-04-05T08:11:23.578Z,11.08
2024-04-05T08:12:26.059Z,11.14
2024-04-05T08:13:28.646Z,11.18
2024-04-05T08:14:30.936Z,11.23
2024-04-05T08:15:33.653Z,11.31
2024-04-05T08:16:39.085Z,11.43
2024-04-05T08:17:41.522Z,11.49
2024-04-05T08:18:44.039Z,11.54
2024-04-05T08:19:46.572Z,11.58
2024-04-05T08:20:48.838Z,11.61
2024-04-05T08:21:51.145Z,11.66
2024-04-05T08:22:53.487Z,11.72
2024-04-05T08:23:56.011Z,11.81
2024-04-05T08:24:58.788Z,11.87
2024-04-05T08:26:01.496Z,11.96
2024-04-05T08:27:04.497Z,12.05
2024-04-05T08:28:06.809Z,12.04
2024-04-05T08:29:09.080Z,12.03
2024-04-05T08:30:12.108Z,12.05
2024-04-05T08:31:14.371Z,12.09
2024-04-05T08:32:16.725Z,12.13
2024-04-05T08:33:19.637Z,12.14
2024-04-05T08:34:22.516Z,12.12
2024-04-05T08:35:24.936Z,12.16
2024-04-05T08:36:27.535Z,12.18
2024-04-05T08:37:29.995Z,12.20
2024-04-05T08:38:32.274Z,12.19
2024-04-05T08:39:34.960Z,12.19
2024-04-05T08:40:39.903Z,12.22
2024-04-05T08:41:44.634Z,12.22
2024-04-05T08:42:48.842Z,12.26
2024-04-05T08:43:52.958Z,12.32
2024-04-05T08:44:55.954Z,12.41
2024-04-05T08:45:58.486Z,12.46
2024-04-05T08:47:02.215Z,12.48
2024-04-05T08:48:05.585Z,12.53
2024-04-05T08:49:08.698Z,12.55
2024-04-05T08:50:13.077Z,12.58
2024-04-05T08:51:16.147Z,12.64
2024-04-05T08:52:18.852Z,12.65
2024-04-05T08:53:21.395Z,12.63
2024-04-05T08:54:23.995Z,12.63
2024-04-05T08:55:28.332Z,12.65
2024-04-05T08:56:31.393Z,12.64
2024-04-05T08:57:38.742Z,12.71
2024-04-05T08:58:42.651Z,12.76
2024-04-05T08:59:49.774Z,12.73
2024-04-05T09:00:51.833Z,12.77
2024-04-05T09:02:07.233Z,12.81
2024-04-05T09:03:09.546Z,12.83
2024-04-05T09:04:13.444Z,12.87
2024-04-05T09:05:17.926Z,12.93
2024-04-05T09:06:20.578Z,12.96
2024-04-05T09:07:23.128Z,12.98
2024-04-05T09:08:25.594Z,13.04
2024-04-05T09:09:29.207Z,13.09
2024-04-05T09:10:33.407Z,13.14
2024-04-05T09:11:35.914Z,13.17
2024-04-05T09:12:49.600Z,13.22
2024-04-05T09:13:57.341Z,13.26
2024-04-05T09:14:59.930Z,13.26
2024-04-05T09:16:02.327Z,13.26
2024-04-05T09:17:15.818Z,13.28
2024-04-05T09:18:26.542Z,13.33
2024-04-05T09:19:28.880Z,13.40
2024-04-05T09:20:31.577Z,13.47
2024-04-05T09:21:34.621Z,13.53
2024-04-05T09:22:36.831Z,13.53
2024-04-05T09:23:48.443Z,13.50
2024-04-05T09:25:02.745Z,13.45
2024-04-05T09:26:05.318Z,13.39
2024-04-05T09:27:07.744Z,13.40
2024-04-05T09:28:12.571Z,13.44
2024-04-05T09:29:15.779Z,13.37
2024-04-05T09:30:18.425Z,13.36
2024-04-05T09:31:21.382Z,13.35
2024-04-05T09:32:23.608Z,13.34
2024-04-05T09:33:26.115Z,13.37
2024-04-05T09:34:30.156Z,13.45
2024-04-05T09:35:37.843Z,13.52
2024-04-05T09:36:40.517Z,13.54
2024-04-05T09:37:43.147Z,13.60
2024-04-05T09:38:46.118Z,13.67
2024-04-05T09:39:50.100Z,13.74
2024-04-05T09:40:52.951Z,13.83
2024-04-05T09:41:55.169Z,13.91
2024-04-05T09:42:58.887Z,13.99
2024-04-05T09:44:10.255Z,14.06
2024-04-05T09:45:08.823Z,14.16
2024-04-05T09:46:13.009Z,14.25
2024-04-05T09:47:18.006Z,14.30
2024-04-05T09:48:22.021Z,14.36
2024-04-05T09:49:25.615Z,14.43
2024-04-05T09:50:30.568Z,14.47
2024-04-05T09:51:42.723Z,14.45
2024-04-05T09:52:45.331Z,14.46
2024-04-05T09:53:50.855Z,14.51
2024-04-05T09:54:56.261Z,14.52
2024-04-05T09:56:00.659Z,14.59
2024-04-05T09:57:03.901Z,14.62
2024-04-05T09:58:06.726Z,14.70
2024-04-05T09:59:15.555Z,14.77
2024-04-05T10:00:21.750Z,14.69
2024-04-05T10:01:24.252Z,14.60
2024-04-05T10:02:29.190Z,14.55
2024-04-05T10:03:31.844Z,14.58
2024-04-05T10:04:37.301Z,14.61
2024-04-05T10:05:39.441Z,14.66
2024-04-05T10:06:42.534Z,14.65
2024-04-05T10:07:44.835Z,14.65
2024-04-05T10:08:47.354Z,14.68
2024-04-05T10:09:49.699Z,14.70
2024-04-05T10:10:54.156Z,14.75
2024-04-05T10:11:56.571Z,14.74
2024-04-05T10:13:11.227Z,14.79
2024-04-05T10:14:27.796Z,14.84
2024-04-05T10:15:30.831Z,14.88
2024-04-05T10:16:34.825Z,14.93
2024-04-05T10:17:38.043Z,14.98
2024-04-05T10:18:41.316Z,15.06
2024-04-05T10:19:44.811Z,15.11
2024-04-05T10:20:52.165Z,15.13
2024-04-05T10:22:04.872Z,15.12
2024-04-05T10:23:11.370Z,15.13
2024-04-05T10:24:14.630Z,15.12
2024-04-05T10:25:17.966Z,15.14
2024-04-05T10:26:21.314Z,15.17
2024-04-05T10:27:27.004Z,15.15
2024-04-05T10:28:30.180Z,15.12
2024-04-05T10:29:32.620Z,15.10
2024-04-05T10:30:35.620Z,15.09
2024-04-05T10:31:41.486Z,15.09
2024-04-05T10:32:48.711Z,15.08
2024-04-05T10:33:51.299Z,15.05
2024-04-05T10:34:57.321Z,15.04
2024-04-05T10:36:00.909Z,15.03
2024-04-05T10:37:06.833Z,15.03
2024-04-05T10:38:19.292Z,15.06
2024-04-05T10:39:14.373Z,15.04
2024-04-05T10:40:17.628Z,15.13
2024-04-05T10:41:20.114Z,15.20
2024-04-05T10:42:26.475Z,15.27
2024-04-05T10:43:31.202Z,15.30
2024-04-05T10:44:33.733Z,15.35
2024-04-05T10:45:36.895Z,15.35
2024-04-05T10:46:40.053Z,15.32
2024-04-05T10:47:53.198Z,15.29
2024-04-05T10:48:59.172Z,15.36
2024-04-05T10:50:04.178Z,15.41
2024-04-05T10:51:06.366Z,15.47
2024-04-05T10:52:09.032Z,15.52
2024-04-05T10:53:14.993Z,15.56
2024-04-05T10:54:17.308Z,15.62
2024-04-05T10:55:22.268Z,15.62
2024-04-05T10:56:24.839Z,15.64
2024-04-05T10:57:30.476Z,15.70
2024-04-05T10:58:35.531Z,15.76
2024-04-05T10:59:37.988Z,15.83
2024-04-05T11:00:41.397Z,15.87
2024-04-05T11:01:44.084Z,15.94
2024-04-05T11:02:46.551Z,16.06
2024-04-05T11:03:48.824Z,16.12
2024-04-05T11:04:51.111Z,16.13
2024-04-05T11:05:57.153Z,16.16
2024-04-05T11:07:00.365Z,16.22
2024-04-05T11:08:06.071Z,16.26
2024-04-05T11:09:09.529Z,16.34
2024-04-05T11:10:27.200Z,16.41
2024-04-05T11:11:24.133Z,16.50
2024-04-05T11:12:26.458Z,16.54
2024-04-05T11:13:28.725Z,16.59
2024-04-05T11:14:31.606Z,16.66
2024-04-05T11:15:34.092Z,16.67
2024-04-05T11:16:37.670Z,16.67
2024-04-05T11:17:40.306Z,16.68
2024-04-05T11:18:42.714Z,16.71
2024-04-05T11:19:45.278Z,16.67
2024-04-05T11:20:50.642Z,16.67
2024-04-05T11:22:04.549Z,16.65
2024-04-05T11:23:17.189Z,16.63
2024-04-05T11:24:21.551Z,16.67
2024-04-05T11:25:30.313Z,16.71
2024-04-05T11:26:37.251Z,16.73
2024-04-05T11:27:40.462Z,16.76
2024-04-05T11:28:45.199Z,16.76
2024-04-05T11:29:51.202Z,16.80
2024-04-05T11:30:55.027Z,16.81
2024-04-05T11:31:59.620Z,16.85
2024-04-05T11:33:03.541Z,16.84
2024-04-05T11:34:06.460Z,16.84
2024-04-05T11:35:10.341Z,16.88
2024-04-05T11:36:12.980Z,16.93
2024-04-05T11:37:15.403Z,16.96
2024-04-05T11:38:17.880Z,16.92
2024-04-05T11:39:20.221Z,16.91
2024-04-05T11:40:32.932Z,16.94
2024-04-05T11:41:27.621Z,16.98
2024-04-05T11:42:30.202Z,17.00
2024-04-05T11:43:33.594Z,16.94
2024-04-05T11:44:36.022Z,16.90
2024-04-05T11:45:38.387Z,16.91
2024-04-05T11:46:40.721Z,16.91
2024-04-05T11:47:44.453Z,16.91
2024-04-05T11:48:47.016Z,16.92
2024-04-05T11:49:52.234Z,16.94
2024-04-05T11:50:54.642Z,16.96
2024-04-05T11:51:57.036Z,16.93
2024-04-05T11:52:59.587Z,16.95
2024-04-05T11:54:02.112Z,16.95
2024-04-05T11:55:05.150Z,16.96
2024-04-05T11:56:08.003Z,16.96
2024-04-05T11:57:12.681Z,16.95
2024-04-05T11:58:14.990Z,16.97
2024-04-05T11:59:18.477Z,17.03
2024-04-05T12:00:20.989Z,17.07
2024-04-05T12:01:23.414Z,17.10
2024-04-05T12:02:25.786Z,17.11
2024-04-05T12:03:27.940Z,17.19
2024-04-05T12:04:30.261Z,17.24
2024-04-05T12:05:32.600Z,17.25
2024-04-05T12:06:35.218Z,17.28
2024-04-05T12:07:38.148Z,17.34
2024-04-05T12:08:40.351Z,17.39
2024-04-05T12:09:43.112Z,17.41
2024-04-05T12:10:45.413Z,17.46
2024-04-05T12:11:49.703Z,17.51
2024-04-05T12:12:52.017Z,17.61
2024-04-05T12:13:54.381Z,17.69
2024-04-05T12:14:57.904Z,17.78
2024-04-05T12:16:00.587Z,17.86
2024-04-05T12:17:03.544Z,17.94
2024-04-05T12:18:07.710Z,17.97
2024-04-05T12:19:09.918Z,18.03
2024-04-05T12:20:14.439Z,18.03
2024-04-05T12:21:17.161Z,18.01
2024-04-05T12:22:19.841Z,17.97
2024-04-05T12:23:22.036Z,17.93
2024-04-05T12:24:24.542Z,17.88
2024-04-05T12:25:28.629Z,17.83
2024-04-05T12:26:36.973Z,17.77
2024-04-05T12:27:35.422Z,17.72
2024-04-05T12:28:37.879Z,17.66
2024-04-05T12:29:40.108Z,17.62
2024-04-05T12:30:43.624Z,17.57
2024-04-05T12:31:46.088Z,17.51
2024-04-05T12:32:48.266Z,17.47
2024-04-05T12:33:50.700Z,17.47
2024-04-05T12:34:53.073Z,17.44
2024-04-05T12:35:56.851Z,17.39
2024-04-05T12:36:59.397Z,17.35
2024-04-05T12:38:01.599Z,17.36
2024-04-05T12:39:04.038Z,17.36
2024-04-05T12:40:08.343Z,17.39
2024-04-05T12:41:10.964Z,17.44
2024-04-05T12:42:13.352Z,17.53
2024-04-05T12:43:15.558Z,17.60
2024-04-05T12:44:20.937Z,17.69
2024-04-05T12:45:22.533Z,17.74
2024-04-05T12:46:25.065Z,17.79
2024-04-05T12:47:27.549Z,17.88
2024-04-05T12:48:29.782Z,17.94
2024-04-05T12:49:32.252Z,17.99
2024-04-05T12:50:34.519Z,18.06
2024-04-05T12:51:36.908Z,18.12
2024-04-05T12:52:39.246Z,18.20
2024-04-05T12:53:41.576Z,18.28
2024-04-05T12:54:43.872Z,18.38
2024-04-05T12:55:57.247Z,18.44
2024-04-05T12:57:02.759Z,18.49
2024-04-05T12:58:05.183Z,18.46
2024-04-05T12:59:08.250Z,18.44
2024-04-05T13:00:12.002Z,18.41
2024-04-05T13:01:14.523Z,18.35
2024-04-05T13:02:17.811Z,18.34
2024-04-05T13:03:21.047Z,18.39
2024-04-05T13:04:23.719Z,18.50
2024-04-05T13:05:26.071Z,18.60
2024-04-05T13:06:28.672Z,18.71
2024-04-05T13:07:30.974Z,18.84
2024-04-05T13:08:34.348Z,18.97
2024-04-05T13:09:36.992Z,19.11
2024-04-05T13:10:39.534Z,19.18
2024-04-05T13:11:42.074Z,19.21
2024-04-05T13:12:44.498Z,19.28
2024-04-05T13:13:47.629Z,19.33
2024-04-05T13:14:50.052Z,19.35
2024-04-05T13:15:54.250Z,19.36
2024-04-05T13:16:56.756Z,19.33
2024-04-05T13:17:59.248Z,19.33
2024-04-05T13:19:02.162Z,19.42
2024-04-05T13:20:05.752Z,19.51
2024-04-05T13:21:13.474Z,19.56
2024-04-05T13:22:16.044Z,19.61
2024-04-05T13:23:18.595Z,19.65
2024-04-05T13:24:20.991Z,19.72
2024-04-05T13:25:25.271Z,19.83
2024-04-05T13:26:27.806Z,19.92
2024-04-05T13:27:31.027Z,19.92
2024-04-05T13:28:34.082Z,19.89
2024-04-05T13:29:36.478Z,19.89
2024-04-05T13:30:39.032Z,19.89
2024-04-05T13:31:41.507Z,19.94
2024-04-05T13:32:43.984Z,20.02
2024-04-05T13:33:46.843Z,20.14
2024-04-05T13:34:51.308Z,20.21
2024-04-05T13:35:53.740Z,20.28
2024-04-05T13:36:56.144Z,20.32
2024-04-05T13:37:59.176Z,20.29
2024-04-05T13:39:01.820Z,20.22
2024-04-05T13:40:05.253Z,20.25
2024-04-05T13:41:08.361Z,20.24
2024-04-05T13:42:11.397Z,20.31
2024-04-05T13:43:13.835Z,20.36
2024-04-05T13:44:17.876Z,20.43
2024-04-05T13:45:20.516Z,20.48
2024-04-05T13:46:22.931Z,20.53
2024-04-05T13:47:25.275Z,20.59
2024-04-05T13:48:27.665Z,20.62
2024-04-05T13:49:29.910Z,20.71